sensor_id;sensor_type;location;lat;lon;timestamp;P1;durP1;ratioP1;P2;durP2;ratioP2
15466;SDS011;7834;49.452;11.056;2023-05-10T00:00:43;9.33;;;8.40;;
15466;SDS011;7834;49.452;11.056;2023-05-10T00:03:09;8.65;;;7.78;;
15466;SDS011;7834;49.452;11.056;2023-05-10T00:05:35;9.07;;;8.15;;
15466;SDS011;7834;49.452;11.056;2023-05-10T00:08:01;9.03;;;8.10;;
15466;SDS011;7834;49.452;11.056;2023-05-10T00:10:27;8.93;;;8.05;;
15466;SDS011;7834;49.452;11.056;2023-05-10T00:12:53;9.38;;;8.43;;
15466;SDS011;7834;49.452;11.056;2023-05-10T00:15:19;8.95;;;7.88;;
15466;SDS011;7834;49.452;11.056;2023-05-10T00:17:45;9.48;;;8.30;;
15466;SDS011;7834;49.452;11.056;2023-05-10T00:20:11;10.35;;;9.38;;
15466;SDS011;7834;49.452;11.056;2023-05-10T00:22:37;9.77;;;8.77;;
15466;SDS011;7834;49.452;11.056;2023-05-10T00:25:03;9.57;;;8.57;;
15466;SDS011;7834;49.452;11.056;2023-05-10T00:27:29;9.27;;;8.33;;
15466;SDS011;7834;49.452;11.056;2023-05-10T00:29:55;10.52;;;8.43;;
15466;SDS011;7834;49.452;11.056;2023-05-10T00:32:21;9.50;;;8.50;;
15466;SDS011;7834;49.452;11.056;2023-05-10T00:34:47;9.23;;;8.32;;
15466;SDS011;7834;49.452;11.056;2023-05-10T00:37:13;9.73;;;8.82;;
15466;SDS011;7834;49.452;11.056;2023-05-10T00:39:40;9.88;;;8.90;;
15466;SDS011;7834;49.452;11.056;2023-05-10T00:42:05;9.90;;;8.90;;
15466;SDS011;7834;49.452;11.056;2023-05-10T00:44:31;9.50;;;8.60;;
15466;SDS011;7834;49.452;11.056;2023-05-10T00:46:57;10.77;;;9.07;;
15466;SDS011;7834;49.452;11.056;2023-05-10T00:49:24;10.25;;;9.32;;
15466;SDS011;7834;49.452;11.056;2023-05-10T00:51:50;9.60;;;8.60;;
15466;SDS011;7834;49.452;11.056;2023-05-10T00:54:16;10.10;;;9.10;;
15466;SDS011;7834;49.452;11.056;2023-05-10T00:56:42;10.30;;;9.32;;
15466;SDS011;7834;49.452;11.056;2023-05-10T00:59:14;10.98;;;9.75;;
15466;SDS011;7834;49.452;11.056;2023-05-10T01:01:41;10.98;;;9.88;;
15466;SDS011;7834;49.452;11.056;2023-05-10T01:04:08;10.77;;;9.77;;
15466;SDS011;7834;49.452;11.056;2023-05-10T01:06:35;11.27;;;9.60;;
15466;SDS011;7834;49.452;11.056;2023-05-10T01:09:01;10.27;;;9.27;;
15466;SDS011;7834;49.452;11.056;2023-05-10T01:11:27;10.15;;;9.20;;
15466;SDS011;7834;49.452;11.056;2023-05-10T01:13:56;9.90;;;8.90;;
15466;SDS011;7834;49.452;11.056;2023-05-10T01:16:23;10.18;;;9.18;;
15466;SDS011;7834;49.452;11.056;2023-05-10T01:18:49;10.02;;;9.02;;
15466;SDS011;7834;49.452;11.056;2023-05-10T01:36:30;10.30;;;9.30;;
15466;SDS011;7834;49.452;11.056;2023-05-10T01:39:17;9.45;;;8.43;;
15466;SDS011;7834;49.452;11.056;2023-05-10T01:44:26;9.00;;;8.10;;
15466;SDS011;7834;49.452;11.056;2023-05-10T01:47:01;8.93;;;8.13;;
15466;SDS011;7834;49.452;11.056;2023-05-10T01:49:31;9.23;;;8.43;;
15466;SDS011;7834;49.452;11.056;2023-05-10T01:51:59;9.05;;;8.15;;
15466;SDS011;7834;49.452;11.056;2023-05-10T01:54:26;10.07;;;8.73;;
15466;SDS011;7834;49.452;11.056;2023-05-10T01:57:02;9.55;;;8.65;;
15466;SDS011;7834;49.452;11.056;2023-05-10T01:59:30;11.00;;;9.07;;
15466;SDS011;7834;49.452;11.056;2023-05-10T02:02:01;9.82;;;8.82;;
15466;SDS011;7834;49.452;11.056;2023-05-10T02:04:28;9.90;;;8.93;;
15466;SDS011;7834;49.452;11.056;2023-05-10T02:06:54;7.93;;;7.23;;
15466;SDS011;7834;49.452;11.056;2023-05-10T02:09:21;8.80;;;8.00;;
15466;SDS011;7834;49.452;11.056;2023-05-10T02:11:47;8.20;;;7.40;;
15466;SDS011;7834;49.452;11.056;2023-05-10T02:14:14;8.90;;;8.00;;
15466;SDS011;7834;49.452;11.056;2023-05-10T02:16:41;8.00;;;7.20;;
15466;SDS011;7834;49.452;11.056;2023-05-10T02:19:08;7.93;;;7.13;;
15466;SDS011;7834;49.452;11.056;2023-05-10T02:21:35;7.68;;;6.90;;
15466;SDS011;7834;49.452;11.056;2023-05-10T02:24:02;9.00;;;7.10;;
15466;SDS011;7834;49.452;11.056;2023-05-10T02:26:29;8.45;;;7.68;;
15466;SDS011;7834;49.452;11.056;2023-05-10T02:28:57;7.65;;;6.95;;
15466;SDS011;7834;49.452;11.056;2023-05-10T02:31:23;7.63;;;6.70;;
15466;SDS011;7834;49.452;11.056;2023-05-10T02:33:50;6.88;;;6.28;;
15466;SDS011;7834;49.452;11.056;2023-05-10T02:36:17;6.10;;;5.50;;
15466;SDS011;7834;49.452;11.056;2023-05-10T02:38:44;5.93;;;5.43;;
15466;SDS011;7834;49.452;11.056;2023-05-10T02:41:11;6.00;;;5.50;;
15466;SDS011;7834;49.452;11.056;2023-05-10T02:43:37;5.72;;;5.13;;
15466;SDS011;7834;49.452;11.056;2023-05-10T02:46:05;5.68;;;5.18;;
15466;SDS011;7834;49.452;11.056;2023-05-10T02:48:31;6.55;;;5.80;;
15466;SDS011;7834;49.452;11.056;2023-05-10T02:51:00;5.10;;;4.70;;
15466;SDS011;7834;49.452;11.056;2023-05-10T02:53:30;4.45;;;3.58;;
15466;SDS011;7834;49.452;11.056;2023-05-10T02:55:58;5.35;;;4.85;;
15466;SDS011;7834;49.452;11.056;2023-05-10T02:58:25;4.90;;;3.90;;
15466;SDS011;7834;49.452;11.056;2023-05-10T03:00:51;3.95;;;3.65;;
15466;SDS011;7834;49.452;11.056;2023-05-10T03:03:17;3.38;;;3.08;;
15466;SDS011;7834;49.452;11.056;2023-05-10T03:05:43;4.30;;;3.75;;
15466;SDS011;7834;49.452;11.056;2023-05-10T03:08:10;3.72;;;3.08;;
15466;SDS011;7834;49.452;11.056;2023-05-10T03:10:38;3.95;;;3.25;;
15466;SDS011;7834;49.452;11.056;2023-05-10T03:18:27;2.97;;;2.78;;
15466;SDS011;7834;49.452;11.056;2023-05-10T03:20:57;3.63;;;2.97;;
15466;SDS011;7834;49.452;11.056;2023-05-10T03:23:34;3.65;;;2.97;;
15466;SDS011;7834;49.452;11.056;2023-05-10T03:26:00;2.95;;;2.72;;
15466;SDS011;7834;49.452;11.056;2023-05-10T03:28:27;2.90;;;2.70;;
15466;SDS011;7834;49.452;11.056;2023-05-10T03:30:53;2.80;;;2.60;;
15466;SDS011;7834;49.452;11.056;2023-05-10T03:33:19;2.47;;;2.27;;
15466;SDS011;7834;49.452;11.056;2023-05-10T03:35:45;2.75;;;2.55;;
15466;SDS011;7834;49.452;11.056;2023-05-10T03:38:12;4.47;;;2.10;;
15466;SDS011;7834;49.452;11.056;2023-05-10T03:40:38;2.10;;;1.90;;
15466;SDS011;7834;49.452;11.056;2023-05-10T03:43:04;2.05;;;1.70;;
15466;SDS011;7834;49.452;11.056;2023-05-10T03:45:30;1.60;;;1.50;;
15466;SDS011;7834;49.452;11.056;2023-05-10T03:47:57;1.42;;;1.30;;
15466;SDS011;7834;49.452;11.056;2023-05-10T03:50:23;1.77;;;1.30;;
15466;SDS011;7834;49.452;11.056;2023-05-10T03:52:49;1.00;;;1.00;;
15466;SDS011;7834;49.452;11.056;2023-05-10T03:55:15;1.38;;;1.20;;
15466;SDS011;7834;49.452;11.056;2023-05-10T03:57:41;1.48;;;1.20;;
15466;SDS011;7834;49.452;11.056;2023-05-10T04:00:08;1.53;;;1.20;;
15466;SDS011;7834;49.452;11.056;2023-05-10T04:02:34;1.20;;;1.10;;
15466;SDS011;7834;49.452;11.056;2023-05-10T04:05:00;1.05;;;1.00;;
15466;SDS011;7834;49.452;11.056;2023-05-10T04:07:26;1.55;;;1.10;;
15466;SDS011;7834;49.452;11.056;2023-05-10T04:09:52;1.10;;;1.00;;
15466;SDS011;7834;49.452;11.056;2023-05-10T04:12:18;1.10;;;1.02;;
15466;SDS011;7834;49.452;11.056;2023-05-10T04:14:44;0.98;;;0.98;;
15466;SDS011;7834;49.452;11.056;2023-05-10T04:17:10;1.10;;;1.00;;
15466;SDS011;7834;49.452;11.056;2023-05-10T04:19:36;0.70;;;0.70;;
15466;SDS011;7834;49.452;11.056;2023-05-10T04:22:03;1.30;;;1.02;;
15466;SDS011;7834;49.452;11.056;2023-05-10T04:24:29;1.40;;;0.93;;
15466;SDS011;7834;49.452;11.056;2023-05-10T04:26:55;0.93;;;0.93;;
15466;SDS011;7834;49.452;11.056;2023-05-10T04:29:21;2.40;;;0.90;;
15466;SDS011;7834;49.452;11.056;2023-05-10T04:31:47;1.20;;;1.00;;
15466;SDS011;7834;49.452;11.056;2023-05-10T04:34:13;1.20;;;0.80;;
15466;SDS011;7834;49.452;11.056;2023-05-10T04:36:39;1.00;;;0.90;;
15466;SDS011;7834;49.452;11.056;2023-05-10T04:39:05;0.90;;;0.80;;
15466;SDS011;7834;49.452;11.056;2023-05-10T04:41:32;1.42;;;0.88;;
15466;SDS011;7834;49.452;11.056;2023-05-10T04:43:58;0.88;;;0.88;;
15466;SDS011;7834;49.452;11.056;2023-05-10T04:46:24;1.20;;;1.00;;
15466;SDS011;7834;49.452;11.056;2023-05-10T04:48:50;1.80;;;0.80;;
15466;SDS011;7834;49.452;11.056;2023-05-10T04:51:16;1.00;;;0.70;;
15466;SDS011;7834;49.452;11.056;2023-05-10T04:53:42;0.70;;;0.70;;
15466;SDS011;7834;49.452;11.056;2023-05-10T04:56:08;1.05;;;0.82;;
15466;SDS011;7834;49.452;11.056;2023-05-10T04:58:34;0.90;;;0.90;;
15466;SDS011;7834;49.452;11.056;2023-05-10T05:01:06;0.73;;;0.70;;
15466;SDS011;7834;49.452;11.056;2023-05-10T05:03:34;0.75;;;0.75;;
15466;SDS011;7834;49.452;11.056;2023-05-10T05:06:00;1.00;;;0.90;;
15466;SDS011;7834;49.452;11.056;2023-05-10T05:08:26;0.60;;;0.60;;
15466;SDS011;7834;49.452;11.056;2023-05-10T05:10:52;0.98;;;0.98;;
15466;SDS011;7834;49.452;11.056;2023-05-10T05:13:19;1.30;;;1.17;;
15466;SDS011;7834;49.452;11.056;2023-05-10T05:15:45;0.90;;;0.90;;
15466;SDS011;7834;49.452;11.056;2023-05-10T05:18:11;1.20;;;1.10;;
15466;SDS011;7834;49.452;11.056;2023-05-10T05:20:37;1.00;;;1.00;;
15466;SDS011;7834;49.452;11.056;2023-05-10T05:23:03;1.80;;;1.40;;
15466;SDS011;7834;49.452;11.056;2023-05-10T05:25:29;1.50;;;1.27;;
15466;SDS011;7834;49.452;11.056;2023-05-10T05:27:55;2.65;;;1.40;;
15466;SDS011;7834;49.452;11.056;2023-05-10T05:30:21;4.43;;;1.13;;
15466;SDS011;7834;49.452;11.056;2023-05-10T05:32:47;1.27;;;1.17;;
15466;SDS011;7834;49.452;11.056;2023-05-10T05:35:13;1.83;;;1.05;;
15466;SDS011;7834;49.452;11.056;2023-05-10T05:37:39;2.40;;;1.20;;
15466;SDS011;7834;49.452;11.056;2023-05-10T05:40:05;1.85;;;1.02;;
15466;SDS011;7834;49.452;11.056;2023-05-10T05:42:32;1.20;;;1.10;;
15466;SDS011;7834;49.452;11.056;2023-05-10T05:44:58;1.10;;;1.00;;
15466;SDS011;7834;49.452;11.056;2023-05-10T05:47:24;1.30;;;1.20;;
15466;SDS011;7834;49.452;11.056;2023-05-10T05:49:50;1.23;;;1.20;;
15466;SDS011;7834;49.452;11.056;2023-05-10T05:52:16;2.15;;;1.20;;
15466;SDS011;7834;49.452;11.056;2023-05-10T05:54:42;1.52;;;1.20;;
15466;SDS011;7834;49.452;11.056;2023-05-10T05:57:08;2.78;;;1.20;;
15466;SDS011;7834;49.452;11.056;2023-05-10T05:59:37;1.30;;;1.15;;
15466;SDS011;7834;49.452;11.056;2023-05-10T06:02:08;1.55;;;1.20;;
15466;SDS011;7834;49.452;11.056;2023-05-10T06:04:34;1.20;;;1.10;;
15466;SDS011;7834;49.452;11.056;2023-05-10T06:07:00;2.10;;;1.23;;
15466;SDS011;7834;49.452;11.056;2023-05-10T06:09:26;1.75;;;1.30;;
15466;SDS011;7834;49.452;11.056;2023-05-10T06:11:52;1.33;;;1.23;;
15466;SDS011;7834;49.452;11.056;2023-05-10T06:14:20;1.40;;;1.30;;
15466;SDS011;7834;49.452;11.056;2023-05-10T06:16:46;2.03;;;1.40;;
15466;SDS011;7834;49.452;11.056;2023-05-10T06:19:12;1.52;;;1.42;;
15466;SDS011;7834;49.452;11.056;2023-05-10T06:21:38;1.40;;;1.25;;
15466;SDS011;7834;49.452;11.056;2023-05-10T06:24:04;1.73;;;1.30;;
15466;SDS011;7834;49.452;11.056;2023-05-10T06:26:31;1.85;;;1.48;;
15466;SDS011;7834;49.452;11.056;2023-05-10T06:28:57;1.60;;;1.50;;
15466;SDS011;7834;49.452;11.056;2023-05-10T06:31:23;2.17;;;1.50;;
15466;SDS011;7834;49.452;11.056;2023-05-10T06:33:49;1.27;;;1.17;;
15466;SDS011;7834;49.452;11.056;2023-05-10T06:36:15;1.65;;;1.25;;
15466;SDS011;7834;49.452;11.056;2023-05-10T06:38:41;1.67;;;1.40;;
15466;SDS011;7834;49.452;11.056;2023-05-10T06:41:07;1.73;;;1.30;;
15466;SDS011;7834;49.452;11.056;2023-05-10T06:43:33;1.50;;;1.40;;
15466;SDS011;7834;49.452;11.056;2023-05-10T06:45:59;1.63;;;1.50;;
15466;SDS011;7834;49.452;11.056;2023-05-10T06:48:25;1.77;;;1.45;;
15466;SDS011;7834;49.452;11.056;2023-05-10T06:50:52;1.40;;;1.30;;
15466;SDS011;7834;49.452;11.056;2023-05-10T06:53:18;3.10;;;1.30;;
15466;SDS011;7834;49.452;11.056;2023-05-10T06:55:44;2.40;;;1.42;;
15466;SDS011;7834;49.452;11.056;2023-05-10T06:58:10;1.95;;;1.50;;
15466;SDS011;7834;49.452;11.056;2023-05-10T07:00:36;1.42;;;1.33;;
15466;SDS011;7834;49.452;11.056;2023-05-10T07:03:05;1.50;;;1.40;;
15466;SDS011;7834;49.452;11.056;2023-05-10T07:05:31;1.45;;;1.35;;
15466;SDS011;7834;49.452;11.056;2023-05-10T07:07:57;2.30;;;1.35;;
15466;SDS011;7834;49.452;11.056;2023-05-10T07:10:23;2.30;;;1.47;;
15466;SDS011;7834;49.452;11.056;2023-05-10T07:12:49;2.20;;;1.20;;
15466;SDS011;7834;49.452;11.056;2023-05-10T07:15:15;1.88;;;1.20;;
15466;SDS011;7834;49.452;11.056;2023-05-10T07:17:42;2.33;;;1.30;;
15466;SDS011;7834;49.452;11.056;2023-05-10T07:20:08;1.85;;;1.30;;
15466;SDS011;7834;49.452;11.056;2023-05-10T07:22:34;2.53;;;1.20;;
15466;SDS011;7834;49.452;11.056;2023-05-10T07:25:00;1.50;;;1.10;;
15466;SDS011;7834;49.452;11.056;2023-05-10T07:27:26;2.42;;;1.40;;
15466;SDS011;7834;49.452;11.056;2023-05-10T07:29:52;1.63;;;1.40;;
15466;SDS011;7834;49.452;11.056;2023-05-10T07:32:18;2.05;;;1.40;;
15466;SDS011;7834;49.452;11.056;2023-05-10T07:34:44;2.38;;;1.30;;
15466;SDS011;7834;49.452;11.056;2023-05-10T07:37:10;3.97;;;1.52;;
15466;SDS011;7834;49.452;11.056;2023-05-10T07:39:36;1.40;;;1.27;;
15466;SDS011;7834;49.452;11.056;2023-05-10T07:42:02;2.55;;;1.35;;
15466;SDS011;7834;49.452;11.056;2023-05-10T07:44:28;1.63;;;1.30;;
15466;SDS011;7834;49.452;11.056;2023-05-10T07:46:54;1.77;;;1.45;;
15466;SDS011;7834;49.452;11.056;2023-05-10T07:49:20;2.00;;;1.48;;
15466;SDS011;7834;49.452;11.056;2023-05-10T07:51:46;1.50;;;1.40;;
15466;SDS011;7834;49.452;11.056;2023-05-10T07:54:13;1.58;;;1.48;;
15466;SDS011;7834;49.452;11.056;2023-05-10T07:56:39;1.40;;;1.30;;
15466;SDS011;7834;49.452;11.056;2023-05-10T07:59:10;1.87;;;1.57;;
15466;SDS011;7834;49.452;11.056;2023-05-10T08:01:40;1.95;;;1.67;;
15466;SDS011;7834;49.452;11.056;2023-05-10T08:04:06;2.13;;;1.52;;
15466;SDS011;7834;49.452;11.056;2023-05-10T08:06:32;2.13;;;1.50;;
15466;SDS011;7834;49.452;11.056;2023-05-10T08:08:58;1.80;;;1.42;;
15466;SDS011;7834;49.452;11.056;2023-05-10T08:11:24;2.42;;;1.50;;
15466;SDS011;7834;49.452;11.056;2023-05-10T08:13:50;5.53;;;4.78;;
15466;SDS011;7834;49.452;11.056;2023-05-10T08:16:17;1.70;;;1.60;;
15466;SDS011;7834;49.452;11.056;2023-05-10T08:18:43;2.30;;;1.65;;
15466;SDS011;7834;49.452;11.056;2023-05-10T08:21:10;1.80;;;1.70;;
15466;SDS011;7834;49.452;11.056;2023-05-10T08:23:36;1.73;;;1.63;;
15466;SDS011;7834;49.452;11.056;2023-05-10T08:26:02;1.83;;;1.58;;
15466;SDS011;7834;49.452;11.056;2023-05-10T08:28:28;15.30;;;3.40;;
15466;SDS011;7834;49.452;11.056;2023-05-10T08:30:54;8.95;;;2.70;;
15466;SDS011;7834;49.452;11.056;2023-05-10T08:33:20;2.63;;;1.77;;
15466;SDS011;7834;49.452;11.056;2023-05-10T08:35:46;2.97;;;1.80;;
15466;SDS011;7834;49.452;11.056;2023-05-10T08:38:12;3.15;;;1.70;;
15466;SDS011;7834;49.452;11.056;2023-05-10T08:40:42;2.45;;;1.73;;
15466;SDS011;7834;49.452;11.056;2023-05-10T08:43:11;4.40;;;1.85;;
15466;SDS011;7834;49.452;11.056;2023-05-10T08:45:40;3.25;;;1.60;;
15466;SDS011;7834;49.452;11.056;2023-05-10T08:48:07;3.47;;;2.15;;
15466;SDS011;7834;49.452;11.056;2023-05-10T08:50:36;13.52;;;2.65;;
15466;SDS011;7834;49.452;11.056;2023-05-10T08:53:04;2.20;;;1.70;;
15466;SDS011;7834;49.452;11.056;2023-05-10T08:55:30;2.43;;;1.73;;
15466;SDS011;7834;49.452;11.056;2023-05-10T08:57:58;2.67;;;1.98;;
15466;SDS011;7834;49.452;11.056;2023-05-10T09:00:24;3.92;;;2.00;;
15466;SDS011;7834;49.452;11.056;2023-05-10T09:02:50;2.40;;;2.20;;
15466;SDS011;7834;49.452;11.056;2023-05-10T09:05:16;9.03;;;3.47;;
15466;SDS011;7834;49.452;11.056;2023-05-10T09:07:42;3.83;;;2.80;;
15466;SDS011;7834;49.452;11.056;2023-05-10T09:10:09;6.05;;;4.00;;
15466;SDS011;7834;49.452;11.056;2023-05-10T09:12:36;7.47;;;3.38;;
15466;SDS011;7834;49.452;11.056;2023-05-10T09:15:03;4.80;;;2.80;;
15466;SDS011;7834;49.452;11.056;2023-05-10T09:17:29;5.30;;;3.10;;
15466;SDS011;7834;49.452;11.056;2023-05-10T09:19:58;4.55;;;3.30;;
15466;SDS011;7834;49.452;11.056;2023-05-10T09:22:24;5.28;;;3.45;;
15466;SDS011;7834;49.452;11.056;2023-05-10T09:27:49;3.85;;;3.22;;
15466;SDS011;7834;49.452;11.056;2023-05-10T09:30:25;3.63;;;3.03;;
15466;SDS011;7834;49.452;11.056;2023-05-10T09:32:51;52.43;;;8.23;;
15466;SDS011;7834;49.452;11.056;2023-05-10T09:35:18;5.43;;;3.10;;
15466;SDS011;7834;49.452;11.056;2023-05-10T09:37:48;5.18;;;3.25;;
15466;SDS011;7834;49.452;11.056;2023-05-10T09:40:18;5.97;;;3.10;;
15466;SDS011;7834;49.452;11.056;2023-05-10T09:42:57;3.58;;;2.90;;
15466;SDS011;7834;49.452;11.056;2023-05-10T09:45:24;4.60;;;2.97;;
15466;SDS011;7834;49.452;11.056;2023-05-10T09:47:50;3.63;;;3.10;;
15466;SDS011;7834;49.452;11.056;2023-05-10T09:50:17;3.90;;;3.13;;
15466;SDS011;7834;49.452;11.056;2023-05-10T09:52:53;5.13;;;3.23;;
15466;SDS011;7834;49.452;11.056;2023-05-10T09:55:22;4.28;;;3.40;;
15466;SDS011;7834;49.452;11.056;2023-05-10T09:57:49;4.43;;;2.85;;
15466;SDS011;7834;49.452;11.056;2023-05-10T10:00:18;4.15;;;3.20;;
15466;SDS011;7834;49.452;11.056;2023-05-10T10:02:53;3.67;;;3.03;;
15466;SDS011;7834;49.452;11.056;2023-05-10T10:05:20;3.20;;;2.90;;
15466;SDS011;7834;49.452;11.056;2023-05-10T10:07:46;5.93;;;3.00;;
15466;SDS011;7834;49.452;11.056;2023-05-10T10:10:14;3.73;;;1.90;;
15466;SDS011;7834;49.452;11.056;2023-05-10T10:12:40;2.27;;;1.80;;
15466;SDS011;7834;49.452;11.056;2023-05-10T10:15:08;3.15;;;1.70;;
15466;SDS011;7834;49.452;11.056;2023-05-10T10:17:35;3.90;;;1.95;;
15466;SDS011;7834;49.452;11.056;2023-05-10T10:20:02;2.45;;;1.90;;
15466;SDS011;7834;49.452;11.056;2023-05-10T10:22:29;3.07;;;2.00;;
15466;SDS011;7834;49.452;11.056;2023-05-10T10:24:55;2.88;;;1.80;;
15466;SDS011;7834;49.452;11.056;2023-05-10T10:35:12;3.60;;;1.90;;
15466;SDS011;7834;49.452;11.056;2023-05-10T10:37:45;2.20;;;1.60;;
15466;SDS011;7834;49.452;11.056;2023-05-10T10:40:33;3.00;;;1.80;;
15466;SDS011;7834;49.452;11.056;2023-05-10T10:42:58;3.28;;;2.00;;
15466;SDS011;7834;49.452;11.056;2023-05-10T10:45:24;2.45;;;1.80;;
15466;SDS011;7834;49.452;11.056;2023-05-10T10:50:43;2.30;;;1.88;;
15466;SDS011;7834;49.452;11.056;2023-05-10T10:53:10;5.18;;;2.20;;
15466;SDS011;7834;49.452;11.056;2023-05-10T10:55:44;4.28;;;2.05;;
15466;SDS011;7834;49.452;11.056;2023-05-10T10:58:12;2.58;;;1.80;;
15466;SDS011;7834;49.452;11.056;2023-05-10T11:01:08;3.80;;;2.00;;
15466;SDS011;7834;49.452;11.056;2023-05-10T11:03:34;2.28;;;1.75;;
15466;SDS011;7834;49.452;11.056;2023-05-10T11:06:00;3.22;;;1.90;;
15466;SDS011;7834;49.452;11.056;2023-05-10T11:08:31;3.45;;;1.70;;
15466;SDS011;7834;49.452;11.056;2023-05-10T11:15:54;2.50;;;1.80;;
15466;SDS011;7834;49.452;11.056;2023-05-10T11:18:25;2.63;;;2.00;;
15466;SDS011;7834;49.452;11.056;2023-05-10T11:20:52;1.95;;;1.75;;
15466;SDS011;7834;49.452;11.056;2023-05-10T11:23:20;3.70;;;1.80;;
15466;SDS011;7834;49.452;11.056;2023-05-10T11:26:02;3.15;;;1.80;;
15466;SDS011;7834;49.452;11.056;2023-05-10T11:28:41;2.88;;;1.92;;
15466;SDS011;7834;49.452;11.056;2023-05-10T11:31:08;3.40;;;1.90;;
15466;SDS011;7834;49.452;11.056;2023-05-10T11:33:43;2.10;;;1.50;;
15466;SDS011;7834;49.452;11.056;2023-05-10T11:36:17;1.80;;;1.70;;
15466;SDS011;7834;49.452;11.056;2023-05-10T11:38:43;2.08;;;1.67;;
15466;SDS011;7834;49.452;11.056;2023-05-10T11:41:10;1.90;;;1.80;;
15466;SDS011;7834;49.452;11.056;2023-05-10T11:43:37;2.22;;;1.88;;
15466;SDS011;7834;49.452;11.056;2023-05-10T11:46:07;2.70;;;1.70;;
15466;SDS011;7834;49.452;11.056;2023-05-10T11:48:33;2.67;;;1.65;;
15466;SDS011;7834;49.452;11.056;2023-05-10T11:51:00;2.60;;;2.00;;
15466;SDS011;7834;49.452;11.056;2023-05-10T11:53:27;3.00;;;1.77;;
15466;SDS011;7834;49.452;11.056;2023-05-10T11:55:53;2.63;;;2.10;;
15466;SDS011;7834;49.452;11.056;2023-05-10T11:58:19;3.00;;;2.03;;
15466;SDS011;7834;49.452;11.056;2023-05-10T12:00:46;2.85;;;2.40;;
15466;SDS011;7834;49.452;11.056;2023-05-10T12:03:13;2.33;;;1.98;;
15466;SDS011;7834;49.452;11.056;2023-05-10T12:05:39;3.95;;;2.70;;
15466;SDS011;7834;49.452;11.056;2023-05-10T12:08:15;3.33;;;2.47;;
15466;SDS011;7834;49.452;11.056;2023-05-10T12:10:45;4.35;;;2.20;;
15466;SDS011;7834;49.452;11.056;2023-05-10T12:13:12;5.28;;;2.50;;
15466;SDS011;7834;49.452;11.056;2023-05-10T12:15:39;2.33;;;2.13;;
15466;SDS011;7834;49.452;11.056;2023-05-10T12:18:05;2.83;;;2.03;;
15466;SDS011;7834;49.452;11.056;2023-05-10T12:20:31;4.85;;;2.80;;
15466;SDS011;7834;49.452;11.056;2023-05-10T12:22:57;2.35;;;2.15;;
15466;SDS011;7834;49.452;11.056;2023-05-10T12:25:30;2.40;;;2.20;;
15466;SDS011;7834;49.452;11.056;2023-05-10T12:27:57;2.17;;;2.00;;
15466;SDS011;7834;49.452;11.056;2023-05-10T12:30:26;2.38;;;1.83;;
15466;SDS011;7834;49.452;11.056;2023-05-10T12:32:52;2.50;;;1.92;;
15466;SDS011;7834;49.452;11.056;2023-05-10T12:35:19;3.20;;;2.00;;
15466;SDS011;7834;49.452;11.056;2023-05-10T12:37:50;3.45;;;1.90;;
15466;SDS011;7834;49.452;11.056;2023-05-10T12:40:16;2.95;;;1.80;;
15466;SDS011;7834;49.452;11.056;2023-05-10T12:42:42;1.80;;;1.40;;
15466;SDS011;7834;49.452;11.056;2023-05-10T12:45:11;2.13;;;1.50;;
15466;SDS011;7834;49.452;11.056;2023-05-10T12:47:37;2.13;;;1.80;;
15466;SDS011;7834;49.452;11.056;2023-05-10T12:50:04;2.30;;;1.60;;
15466;SDS011;7834;49.452;11.056;2023-05-10T12:52:30;3.27;;;1.70;;
15466;SDS011;7834;49.452;11.056;2023-05-10T12:54:59;2.17;;;1.30;;
15466;SDS011;7834;49.452;11.056;2023-05-10T12:57:26;2.13;;;1.60;;
15466;SDS011;7834;49.452;11.056;2023-05-10T12:59:52;3.40;;;1.67;;
15466;SDS011;7834;49.452;11.056;2023-05-10T13:02:18;3.57;;;1.60;;
15466;SDS011;7834;49.452;11.056;2023-05-10T13:04:46;1.92;;;1.75;;
15466;SDS011;7834;49.452;11.056;2023-05-10T13:07:12;3.40;;;3.05;;
15466;SDS011;7834;49.452;11.056;2023-05-10T13:09:38;1.67;;;1.55;;
15466;SDS011;7834;49.452;11.056;2023-05-10T13:12:04;2.00;;;1.80;;
15466;SDS011;7834;49.452;11.056;2023-05-10T13:14:30;1.92;;;1.70;;
15466;SDS011;7834;49.452;11.056;2023-05-10T13:16:56;2.50;;;1.90;;
15466;SDS011;7834;49.452;11.056;2023-05-10T13:19:22;3.92;;;1.70;;
15466;SDS011;7834;49.452;11.056;2023-05-10T13:21:48;2.20;;;2.00;;
15466;SDS011;7834;49.452;11.056;2023-05-10T13:24:14;2.30;;;2.10;;
15466;SDS011;7834;49.452;11.056;2023-05-10T13:26:42;2.08;;;1.80;;
15466;SDS011;7834;49.452;11.056;2023-05-10T13:29:08;1.70;;;1.50;;
15466;SDS011;7834;49.452;11.056;2023-05-10T13:31:34;1.98;;;1.30;;
15466;SDS011;7834;49.452;11.056;2023-05-10T13:34:01;2.25;;;1.40;;
15466;SDS011;7834;49.452;11.056;2023-05-10T13:36:27;1.70;;;1.33;;
15466;SDS011;7834;49.452;11.056;2023-05-10T13:38:53;2.08;;;1.55;;
15466;SDS011;7834;49.452;11.056;2023-05-10T13:41:19;1.30;;;1.20;;
15466;SDS011;7834;49.452;11.056;2023-05-10T13:43:45;1.70;;;1.50;;
15466;SDS011;7834;49.452;11.056;2023-05-10T13:46:13;1.73;;;1.52;;
15466;SDS011;7834;49.452;11.056;2023-05-10T13:48:39;1.90;;;1.60;;
15466;SDS011;7834;49.452;11.056;2023-05-10T13:51:06;2.55;;;1.50;;
15466;SDS011;7834;49.452;11.056;2023-05-10T13:53:32;1.80;;;1.55;;
15466;SDS011;7834;49.452;11.056;2023-05-10T13:55:58;1.75;;;1.33;;
15466;SDS011;7834;49.452;11.056;2023-05-10T13:58:24;1.58;;;1.45;;
15466;SDS011;7834;49.452;11.056;2023-05-10T14:00:50;2.60;;;1.52;;
15466;SDS011;7834;49.452;11.056;2023-05-10T14:03:16;3.50;;;1.67;;
15466;SDS011;7834;49.452;11.056;2023-05-10T14:05:42;2.20;;;1.70;;
15466;SDS011;7834;49.452;11.056;2023-05-10T14:08:10;2.05;;;1.40;;
15466;SDS011;7834;49.452;11.056;2023-05-10T14:10:38;2.10;;;1.30;;
15466;SDS011;7834;49.452;11.056;2023-05-10T14:13:04;1.45;;;1.30;;
15466;SDS011;7834;49.452;11.056;2023-05-10T14:15:31;2.17;;;1.40;;
15466;SDS011;7834;49.452;11.056;2023-05-10T14:17:57;12.88;;;6.70;;
15466;SDS011;7834;49.452;11.056;2023-05-10T14:20:23;2.95;;;1.90;;
15466;SDS011;7834;49.452;11.056;2023-05-10T14:22:49;4.38;;;2.00;;
15466;SDS011;7834;49.452;11.056;2023-05-10T14:25:15;2.30;;;1.60;;
15466;SDS011;7834;49.452;11.056;2023-05-10T14:27:41;1.63;;;1.38;;
15466;SDS011;7834;49.452;11.056;2023-05-10T14:30:07;4.07;;;1.80;;
15466;SDS011;7834;49.452;11.056;2023-05-10T14:32:33;1.60;;;1.50;;
15466;SDS011;7834;49.452;11.056;2023-05-10T14:35:01;2.25;;;1.50;;
15466;SDS011;7834;49.452;11.056;2023-05-10T14:37:27;4.30;;;1.60;;
15466;SDS011;7834;49.452;11.056;2023-05-10T14:39:53;1.63;;;1.52;;
15466;SDS011;7834;49.452;11.056;2023-05-10T14:42:19;1.50;;;1.33;;
15466;SDS011;7834;49.452;11.056;2023-05-10T14:44:46;1.55;;;1.40;;
15466;SDS011;7834;49.452;11.056;2023-05-10T14:47:12;2.03;;;1.50;;
15466;SDS011;7834;49.452;11.056;2023-05-10T14:49:38;2.75;;;1.60;;
15466;SDS011;7834;49.452;11.056;2023-05-10T14:52:04;2.25;;;1.30;;
15466;SDS011;7834;49.452;11.056;2023-05-10T14:54:30;2.07;;;1.40;;
15466;SDS011;7834;49.452;11.056;2023-05-10T14:56:58;1.70;;;1.52;;
15466;SDS011;7834;49.452;11.056;2023-05-10T14:59:25;1.63;;;1.50;;
15466;SDS011;7834;49.452;11.056;2023-05-10T15:01:51;2.20;;;1.73;;
15466;SDS011;7834;49.452;11.056;2023-05-10T15:04:17;2.50;;;1.70;;
15466;SDS011;7834;49.452;11.056;2023-05-10T15:06:43;2.67;;;1.87;;
15466;SDS011;7834;49.452;11.056;2023-05-10T15:09:09;1.98;;;1.85;;
15466;SDS011;7834;49.452;11.056;2023-05-10T15:11:36;3.05;;;1.77;;
15466;SDS011;7834;49.452;11.056;2023-05-10T15:14:02;2.10;;;1.80;;
15466;SDS011;7834;49.452;11.056;2023-05-10T15:16:28;2.42;;;1.52;;
15466;SDS011;7834;49.452;11.056;2023-05-10T15:18:54;2.20;;;1.30;;
15466;SDS011;7834;49.452;11.056;2023-05-10T15:21:20;4.30;;;1.10;;
15466;SDS011;7834;49.452;11.056;2023-05-10T15:23:46;2.43;;;1.37;;
15466;SDS011;7834;49.452;11.056;2023-05-10T15:26:13;1.55;;;1.00;;
15466;SDS011;7834;49.452;11.056;2023-05-10T15:28:39;1.35;;;0.90;;